Upton, Pennsylvania
Current Conditions -  °F | °C
As of 10:53 PM on Saturday 24 Jan 2015 (Local Time) from KHGR Reporting Station
Overcast Overcast  
Wind Chill: 28°   Ceiling: 3000
Heat Index: 36°   Visibility: 10mi
Dew Point: 25°   Wind: 13mph
Humidity: 64%   Direction: 300°WNW
Pressure: 29.63"   Gusts: NA
Location:  39.7874°N, 77.754°W
Report Text: KHGR 250353Z AUTO 30011KT 10SM OVC030 02/M04 A2963 RMK AO2 SLP048 T00221039
Loading
Personal Weather Stations






























Interactive Weather Map New forecast layout! Learn more

10-Day Weather Forecast

Advertisements
Track Severe Weather on mobile